sensor_id;sensor_type;location;lat;lon;timestamp;noise_LAeq;noise_LA_min;noise_LA_max;noise_LA01;noise_LA95
42701;Laerm;28316;49.504;8.526;2023-02-23T00:01:43;36.90;32.93;39.58;;
42701;Laerm;28316;49.504;8.526;2023-02-23T00:04:10;36.87;33.44;39.70;;
42701;Laerm;28316;49.504;8.526;2023-02-23T00:06:36;36.86;32.35;39.58;;
42701;Laerm;28316;49.504;8.526;2023-02-23T00:09:04;36.85;32.93;39.58;;
42701;Laerm;28316;49.504;8.526;2023-02-23T00:11:56;36.81;30.89;40.03;;
42701;Laerm;28316;49.504;8.526;2023-02-23T00:14:27;36.82;30.89;39.58;;
42701;Laerm;28316;49.504;8.526;2023-02-23T00:16:56;36.82;32.93;39.46;;
42701;Laerm;28316;49.504;8.526;2023-02-23T00:19:22;36.82;30.89;39.58;;
42701;Laerm;28316;49.504;8.526;2023-02-23T00:21:50;36.79;30.89;39.46;;
42701;Laerm;28316;49.504;8.526;2023-02-23T00:24:16;36.77;32.93;39.46;;
42701;Laerm;28316;49.504;8.526;2023-02-23T00:26:47;36.81;31.68;39.46;;
42701;Laerm;28316;49.504;8.526;2023-02-23T00:29:22;36.80;32.93;39.21;;
42701;Laerm;28316;49.504;8.526;2023-02-23T00:31:50;36.78;32.93;39.81;;
42701;Laerm;28316;49.504;8.526;2023-02-23T00:34:19;36.74;31.68;39.21;;
42701;Laerm;28316;49.504;8.526;2023-02-23T00:36:50;36.78;32.35;39.23;;
42701;Laerm;28316;49.504;8.526;2023-02-23T00:39:16;36.72;32.35;39.23;;
42701;Laerm;28316;49.504;8.526;2023-02-23T00:41:44;36.75;31.68;39.58;;
42701;Laerm;28316;49.504;8.526;2023-02-23T00:44:11;36.72;32.93;39.21;;
42701;Laerm;28316;49.504;8.526;2023-02-23T00:46:40;36.72;32.35;39.46;;
42701;Laerm;28316;49.504;8.526;2023-02-23T00:49:09;36.72;31.68;40.03;;
42701;Laerm;28316;49.504;8.526;2023-02-23T00:51:36;36.69;32.35;39.81;;
42701;Laerm;28316;49.504;8.526;2023-02-23T00:54:02;36.69;31.68;39.46;;
42701;Laerm;28316;49.504;8.526;2023-02-23T00:56:28;36.71;32.35;39.34;;
42701;Laerm;28316;49.504;8.526;2023-02-23T00:58:54;36.68;32.35;39.21;;
42701;Laerm;28316;49.504;8.526;2023-02-23T01:01:24;36.66;31.68;39.58;;
42701;Laerm;28316;49.504;8.526;2023-02-23T01:03:50;36.65;31.68;39.70;;
42701;Laerm;28316;49.504;8.526;2023-02-23T01:06:19;36.66;31.68;39.21;;
42701;Laerm;28316;49.504;8.526;2023-02-23T01:08:48;36.60;31.68;39.58;;
42701;Laerm;28316;49.504;8.526;2023-02-23T01:11:21;36.60;31.68;39.58;;
42701;Laerm;28316;49.504;8.526;2023-02-23T01:13:49;36.57;31.68;39.34;;
42701;Laerm;28316;49.504;8.526;2023-02-23T01:16:18;36.55;30.89;39.70;;
42701;Laerm;28316;49.504;8.526;2023-02-23T01:18:45;36.53;30.89;39.46;;
42701;Laerm;28316;49.504;8.526;2023-02-23T01:21:21;36.52;32.35;39.58;;
42701;Laerm;28316;49.504;8.526;2023-02-23T01:23:49;36.46;30.89;39.21;;
42701;Laerm;28316;49.504;8.526;2023-02-23T01:26:24;36.47;30.89;39.34;;
42701;Laerm;28316;49.504;8.526;2023-02-23T01:29:00;36.46;30.89;39.21;;
42701;Laerm;28316;49.504;8.526;2023-02-23T01:31:28;36.46;30.89;39.34;;
42701;Laerm;28316;49.504;8.526;2023-02-23T01:34:00;36.44;31.68;39.46;;
42701;Laerm;28316;49.504;8.526;2023-02-23T01:36:27;36.45;30.89;39.08;;
42701;Laerm;28316;49.504;8.526;2023-02-23T01:38:56;36.44;30.89;39.46;;
42701;Laerm;28316;49.504;8.526;2023-02-23T01:41:27;36.44;31.68;39.70;;
42701;Laerm;28316;49.504;8.526;2023-02-23T01:46:41;36.45;30.89;39.58;;
42701;Laerm;28316;49.504;8.526;2023-02-23T01:49:18;36.42;29.92;39.08;;
42701;Laerm;28316;49.504;8.526;2023-02-23T01:51:56;36.41;29.92;39.58;;
42701;Laerm;28316;49.504;8.526;2023-02-23T01:54:37;36.42;31.68;39.34;;
42701;Laerm;28316;49.504;8.526;2023-02-23T01:57:06;36.42;30.89;39.46;;
42701;Laerm;28316;49.504;8.526;2023-02-23T01:59:42;36.42;30.54;39.21;;
42701;Laerm;28316;49.504;8.526;2023-02-23T02:02:09;36.41;31.68;39.46;;
42701;Laerm;28316;49.504;8.526;2023-02-23T02:04:38;36.41;30.89;39.70;;
42701;Laerm;28316;49.504;8.526;2023-02-23T02:07:20;36.44;30.89;39.81;;
42701;Laerm;28316;49.504;8.526;2023-02-23T02:09:50;36.43;31.68;39.34;;
42701;Laerm;28316;49.504;8.526;2023-02-23T02:12:48;36.41;28.67;39.70;;
42701;Laerm;28316;49.504;8.526;2023-02-23T02:15:16;36.41;29.92;41.38;;
42701;Laerm;28316;49.504;8.526;2023-02-23T02:26:56;36.37;30.89;39.08;;
42701;Laerm;28316;49.504;8.526;2023-02-23T02:32:27;36.37;30.89;39.46;;
42701;Laerm;28316;49.504;8.526;2023-02-23T02:46:58;36.43;30.89;39.46;;
42701;Laerm;28316;49.504;8.526;2023-02-23T02:49:30;36.40;29.92;39.21;;
42701;Laerm;28316;49.504;8.526;2023-02-23T02:52:10;36.40;29.92;39.34;;
42701;Laerm;28316;49.504;8.526;2023-02-23T02:54:50;36.42;30.89;39.21;;
42701;Laerm;28316;49.504;8.526;2023-02-23T02:57:21;36.40;30.89;39.34;;
42701;Laerm;28316;49.504;8.526;2023-02-23T02:59:49;36.40;30.89;39.21;;
42701;Laerm;28316;49.504;8.526;2023-02-23T03:02:38;36.41;30.89;39.34;;
42701;Laerm;28316;49.504;8.526;2023-02-23T03:05:42;36.38;29.92;39.46;;
42701;Laerm;28316;49.504;8.526;2023-02-23T03:08:53;36.37;29.92;39.46;;
42701;Laerm;28316;49.504;8.526;2023-02-23T03:11:45;36.35;30.89;39.58;;
42701;Laerm;28316;49.504;8.526;2023-02-23T03:17:42;36.38;30.89;39.46;;
42701;Laerm;28316;49.504;8.526;2023-02-23T03:26:50;36.34;29.92;39.46;;
42701;Laerm;28316;49.504;8.526;2023-02-23T03:30:15;36.34;31.68;39.81;;
42701;Laerm;28316;49.504;8.526;2023-02-23T03:33:40;36.34;29.92;39.46;;
42701;Laerm;28316;49.504;8.526;2023-02-23T03:36:32;36.40;29.92;56.22;;
42701;Laerm;28316;49.504;8.526;2023-02-23T03:40:00;36.32;29.92;39.58;;
42701;Laerm;28316;49.504;8.526;2023-02-23T03:42:49;36.31;26.91;39.46;;
42701;Laerm;28316;49.504;8.526;2023-02-23T03:45:36;36.29;29.92;39.21;;
42701;Laerm;28316;49.504;8.526;2023-02-23T03:48:21;36.29;28.67;39.21;;
42701;Laerm;28316;49.504;8.526;2023-02-23T03:51:08;36.30;29.92;39.21;;
42701;Laerm;28316;49.504;8.526;2023-02-23T03:54:19;36.30;28.67;39.34;;
42701;Laerm;28316;49.504;8.526;2023-02-23T03:57:08;36.27;28.67;39.46;;
42701;Laerm;28316;49.504;8.526;2023-02-23T04:00:00;36.30;30.89;39.21;;
42701;Laerm;28316;49.504;8.526;2023-02-23T04:02:49;36.30;28.67;39.08;;
42701;Laerm;28316;49.504;8.526;2023-02-23T04:05:38;36.34;30.54;39.34;;
42701;Laerm;28316;49.504;8.526;2023-02-23T04:08:31;36.28;30.89;39.21;;
42701;Laerm;28316;49.504;8.526;2023-02-23T04:11:34;36.28;29.92;39.21;;
42701;Laerm;28316;49.504;8.526;2023-02-23T04:14:30;36.28;29.92;39.35;;
42701;Laerm;28316;49.504;8.526;2023-02-23T04:16:58;36.28;29.92;39.34;;
42701;Laerm;28316;49.504;8.526;2023-02-23T04:19:27;36.28;30.89;38.95;;
42701;Laerm;28316;49.504;8.526;2023-02-23T04:21:53;36.29;29.92;39.70;;
42701;Laerm;28316;49.504;8.526;2023-02-23T04:24:19;36.24;29.92;39.08;;
42701;Laerm;28316;49.504;8.526;2023-02-23T04:26:45;36.24;29.92;38.95;;
42701;Laerm;28316;49.504;8.526;2023-02-23T04:29:11;36.26;30.89;39.46;;
42701;Laerm;28316;49.504;8.526;2023-02-23T04:31:37;36.25;29.92;39.46;;
42701;Laerm;28316;49.504;8.526;2023-02-23T04:34:03;36.24;29.92;39.34;;
42701;Laerm;28316;49.504;8.526;2023-02-23T04:36:29;36.28;29.92;39.21;;
42701;Laerm;28316;49.504;8.526;2023-02-23T04:38:55;36.26;29.92;40.03;;
42701;Laerm;28316;49.504;8.526;2023-02-23T04:41:21;36.27;30.89;39.34;;
42701;Laerm;28316;49.504;8.526;2023-02-23T04:43:47;36.27;30.89;39.46;;
42701;Laerm;28316;49.504;8.526;2023-02-23T04:46:13;36.26;30.89;39.46;;
42701;Laerm;28316;49.504;8.526;2023-02-23T04:48:39;36.26;29.92;39.46;;
42701;Laerm;28316;49.504;8.526;2023-02-23T04:51:04;36.27;29.92;39.08;;
42701;Laerm;28316;49.504;8.526;2023-02-23T04:53:30;36.27;29.92;39.46;;
42701;Laerm;28316;49.504;8.526;2023-02-23T04:55:56;36.28;26.91;39.34;;
42701;Laerm;28316;49.504;8.526;2023-02-23T04:58:22;36.27;29.92;39.21;;
42701;Laerm;28316;49.504;8.526;2023-02-23T05:00:47;36.26;29.92;39.46;;
42701;Laerm;28316;49.504;8.526;2023-02-23T05:03:14;36.27;29.92;39.08;;
42701;Laerm;28316;49.504;8.526;2023-02-23T05:05:42;36.29;28.67;39.58;;
42701;Laerm;28316;49.504;8.526;2023-02-23T05:08:08;36.26;28.67;39.21;;
42701;Laerm;28316;49.504;8.526;2023-02-23T05:10:34;36.28;28.67;39.11;;
42701;Laerm;28316;49.504;8.526;2023-02-23T05:13:00;36.29;30.89;39.34;;
42701;Laerm;28316;49.504;8.526;2023-02-23T05:15:26;36.28;29.92;39.58;;
42701;Laerm;28316;49.504;8.526;2023-02-23T05:17:54;36.24;29.92;39.34;;
42701;Laerm;28316;49.504;8.526;2023-02-23T05:20:21;36.26;29.92;39.58;;
42701;Laerm;28316;49.504;8.526;2023-02-23T05:22:46;36.28;29.92;39.08;;
42701;Laerm;28316;49.504;8.526;2023-02-23T05:25:13;36.26;30.54;39.58;;
42701;Laerm;28316;49.504;8.526;2023-02-23T05:27:39;36.28;29.92;39.34;;
42701;Laerm;28316;49.504;8.526;2023-02-23T05:30:06;36.25;30.89;38.95;;
42701;Laerm;28316;49.504;8.526;2023-02-23T05:32:33;36.29;29.92;39.46;;
42701;Laerm;28316;49.504;8.526;2023-02-23T05:35:00;36.26;30.54;39.58;;
42701;Laerm;28316;49.504;8.526;2023-02-23T05:37:25;36.27;29.92;39.70;;
42701;Laerm;28316;49.504;8.526;2023-02-23T05:39:51;36.28;29.92;38.95;;
42701;Laerm;28316;49.504;8.526;2023-02-23T05:42:17;36.27;29.92;39.58;;
42701;Laerm;28316;49.504;8.526;2023-02-23T05:44:43;36.27;30.89;39.21;;
42701;Laerm;28316;49.504;8.526;2023-02-23T05:47:09;36.25;29.92;39.58;;
42701;Laerm;28316;49.504;8.526;2023-02-23T05:49:36;36.25;29.92;39.34;;
42701;Laerm;28316;49.504;8.526;2023-02-23T05:52:02;36.26;28.67;40.33;;
42701;Laerm;28316;49.504;8.526;2023-02-23T05:54:27;36.29;29.92;39.34;;
42701;Laerm;28316;49.504;8.526;2023-02-23T05:56:53;36.27;29.92;39.21;;
42701;Laerm;28316;49.504;8.526;2023-02-23T05:59:19;36.24;30.89;39.21;;
42701;Laerm;28316;49.504;8.526;2023-02-23T06:01:44;36.26;29.92;39.34;;
42701;Laerm;28316;49.504;8.526;2023-02-23T06:04:10;36.25;29.92;39.34;;
42701;Laerm;28316;49.504;8.526;2023-02-23T06:06:36;36.28;30.89;39.08;;
42701;Laerm;28316;49.504;8.526;2023-02-23T06:09:03;36.26;30.89;39.21;;
42701;Laerm;28316;49.504;8.526;2023-02-23T06:11:29;36.26;30.89;39.08;;
42701;Laerm;28316;49.504;8.526;2023-02-23T06:13:57;36.26;29.92;39.21;;
42701;Laerm;28316;49.504;8.526;2023-02-23T06:16:25;36.24;26.91;39.34;;
42701;Laerm;28316;49.504;8.526;2023-02-23T06:18:51;36.24;30.54;39.34;;
42701;Laerm;28316;49.504;8.526;2023-02-23T06:21:16;36.26;29.92;39.46;;
42701;Laerm;28316;49.504;8.526;2023-02-23T06:23:42;36.24;28.67;39.08;;
42701;Laerm;28316;49.504;8.526;2023-02-23T06:26:08;36.22;29.92;38.95;;
42701;Laerm;28316;49.504;8.526;2023-02-23T06:28:34;36.26;30.89;39.21;;
42701;Laerm;28316;49.504;8.526;2023-02-23T06:31:00;36.21;30.89;39.08;;
42701;Laerm;28316;49.504;8.526;2023-02-23T06:33:26;36.24;29.92;39.08;;
42701;Laerm;28316;49.504;8.526;2023-02-23T06:35:52;36.25;29.92;39.46;;
42701;Laerm;28316;49.504;8.526;2023-02-23T06:38:19;36.24;28.67;39.21;;
42701;Laerm;28316;49.504;8.526;2023-02-23T06:40:45;36.19;28.67;39.21;;
42701;Laerm;28316;49.504;8.526;2023-02-23T06:43:11;36.24;29.92;39.58;;
42701;Laerm;28316;49.504;8.526;2023-02-23T06:45:37;36.19;30.89;39.08;;
42701;Laerm;28316;49.504;8.526;2023-02-23T06:48:03;36.19;29.92;39.70;;
42701;Laerm;28316;49.504;8.526;2023-02-23T06:50:30;36.22;28.67;39.08;;
42701;Laerm;28316;49.504;8.526;2023-02-23T06:52:55;36.22;29.92;39.21;;
42701;Laerm;28316;49.504;8.526;2023-02-23T06:55:22;36.21;29.92;39.34;;
42701;Laerm;28316;49.504;8.526;2023-02-23T06:57:49;36.22;29.92;39.46;;
42701;Laerm;28316;49.504;8.526;2023-02-23T07:00:16;36.22;28.67;39.46;;
42701;Laerm;28316;49.504;8.526;2023-02-23T07:02:43;36.22;29.92;39.21;;
42701;Laerm;28316;49.504;8.526;2023-02-23T07:05:09;36.19;29.92;38.95;;
42701;Laerm;28316;49.504;8.526;2023-02-23T07:07:36;36.21;29.92;39.21;;
42701;Laerm;28316;49.504;8.526;2023-02-23T07:10:03;36.20;30.89;39.21;;
42701;Laerm;28316;49.504;8.526;2023-02-23T07:12:29;36.18;28.67;39.21;;
42701;Laerm;28316;49.504;8.526;2023-02-23T07:14:56;36.19;23.90;39.21;;
42701;Laerm;28316;49.504;8.526;2023-02-23T07:17:22;36.19;30.89;39.08;;
42701;Laerm;28316;49.504;8.526;2023-02-23T07:19:48;36.17;29.92;38.95;;
42701;Laerm;28316;49.504;8.526;2023-02-23T07:22:13;36.20;28.67;38.95;;
42701;Laerm;28316;49.504;8.526;2023-02-23T07:24:39;36.17;28.67;39.21;;
42701;Laerm;28316;49.504;8.526;2023-02-23T07:27:05;36.18;30.89;39.08;;
42701;Laerm;28316;49.504;8.526;2023-02-23T07:29:31;36.18;29.92;39.08;;
42701;Laerm;28316;49.504;8.526;2023-02-23T07:31:56;36.17;29.92;39.08;;
42701;Laerm;28316;49.504;8.526;2023-02-23T07:34:22;36.18;26.91;39.58;;
42701;Laerm;28316;49.504;8.526;2023-02-23T07:36:48;36.18;29.92;39.46;;
42701;Laerm;28316;49.504;8.526;2023-02-23T07:39:14;36.18;30.89;39.21;;
42701;Laerm;28316;49.504;8.526;2023-02-23T07:41:39;36.16;29.92;39.70;;
42701;Laerm;28316;49.504;8.526;2023-02-23T07:44:05;36.14;29.92;39.08;;
42701;Laerm;28316;49.504;8.526;2023-02-23T07:46:31;36.18;30.89;39.46;;
42701;Laerm;28316;49.504;8.526;2023-02-23T07:48:57;36.16;29.92;39.58;;
42701;Laerm;28316;49.504;8.526;2023-02-23T07:51:23;36.16;30.89;39.34;;
42701;Laerm;28316;49.504;8.526;2023-02-23T07:53:49;36.17;23.90;39.21;;
42701;Laerm;28316;49.504;8.526;2023-02-23T07:56:15;36.17;28.67;39.34;;
42701;Laerm;28316;49.504;8.526;2023-02-23T07:58:43;36.16;28.67;39.21;;
42701;Laerm;28316;49.504;8.526;2023-02-23T08:01:10;36.20;29.92;39.21;;
42701;Laerm;28316;49.504;8.526;2023-02-23T08:03:37;36.18;30.89;40.03;;
42701;Laerm;28316;49.504;8.526;2023-02-23T08:06:04;36.19;29.92;39.34;;
42701;Laerm;28316;49.504;8.526;2023-02-23T08:08:30;36.21;29.92;39.08;;
42701;Laerm;28316;49.504;8.526;2023-02-23T08:11:01;36.24;26.91;39.34;;
42701;Laerm;28316;49.504;8.526;2023-02-23T08:13:28;36.29;29.92;39.34;;
42701;Laerm;28316;49.504;8.526;2023-02-23T08:15:54;36.37;30.89;39.46;;
42701;Laerm;28316;49.504;8.526;2023-02-23T08:18:20;36.42;31.68;39.34;;
42701;Laerm;28316;49.504;8.526;2023-02-23T08:20:45;36.46;31.33;39.58;;
42701;Laerm;28316;49.504;8.526;2023-02-23T08:23:11;36.54;31.68;39.34;;
42701;Laerm;28316;49.504;8.526;2023-02-23T08:25:37;36.62;31.68;39.46;;
42701;Laerm;28316;49.504;8.526;2023-02-23T08:28:04;36.83;32.35;39.70;;
42701;Laerm;28316;49.504;8.526;2023-02-23T08:30:32;37.06;33.44;40.03;;
42701;Laerm;28316;49.504;8.526;2023-02-23T08:32:58;37.41;34.69;40.03;;
42701;Laerm;28316;49.504;8.526;2023-02-23T08:35:24;37.79;35.04;40.23;;
42701;Laerm;28316;49.504;8.526;2023-02-23T08:37:50;38.15;35.66;40.23;;
42701;Laerm;28316;49.504;8.526;2023-02-23T08:40:16;38.38;35.66;41.06;;
42701;Laerm;28316;49.504;8.526;2023-02-23T08:42:43;38.58;36.20;40.43;;
42701;Laerm;28316;49.504;8.526;2023-02-23T08:45:10;38.62;35.94;40.53;;
42701;Laerm;28316;49.504;8.526;2023-02-23T08:47:36;38.93;36.45;41.06;;
42701;Laerm;28316;49.504;8.526;2023-02-23T08:50:04;39.01;36.20;40.89;;
42701;Laerm;28316;49.504;8.526;2023-02-23T08:52:30;39.04;36.45;40.62;;
42701;Laerm;28316;49.504;8.526;2023-02-23T08:54:56;39.03;36.91;40.71;;
42701;Laerm;28316;49.504;8.526;2023-02-23T08:57:22;39.14;36.91;41.14;;
42701;Laerm;28316;49.504;8.526;2023-02-23T08:59:48;39.38;37.32;40.98;;
42701;Laerm;28316;49.504;8.526;2023-02-23T09:02:14;39.48;37.52;41.22;;
42701;Laerm;28316;49.504;8.526;2023-02-23T09:04:40;39.69;37.70;41.14;;
42701;Laerm;28316;49.504;8.526;2023-02-23T09:07:14;39.95;38.05;41.53;;
42701;Laerm;28316;49.504;8.526;2023-02-23T09:09:39;39.86;37.70;41.61;;
42701;Laerm;28316;49.504;8.526;2023-02-23T09:12:05;40.03;38.05;41.53;;
42701;Laerm;28316;49.504;8.526;2023-02-23T09:14:31;40.04;38.32;41.53;;
42701;Laerm;28316;49.504;8.526;2023-02-23T09:16:57;40.28;38.52;41.75;;
42701;Laerm;28316;49.504;8.526;2023-02-23T09:19:23;40.59;38.95;43.39;;
42701;Laerm;28316;49.504;8.526;2023-02-23T09:21:52;40.86;39.21;42.35;;
42701;Laerm;28316;49.504;8.526;2023-02-23T09:24:20;41.10;39.70;42.47;;
42701;Laerm;28316;49.504;8.526;2023-02-23T09:26:48;41.34;39.81;45.57;;
42701;Laerm;28316;49.504;8.526;2023-02-23T09:29:14;41.36;40.03;43.09;;
42701;Laerm;28316;49.504;8.526;2023-02-23T09:31:39;41.43;40.08;42.93;;
42701;Laerm;28316;49.504;8.526;2023-02-23T09:34:05;41.63;40.13;43.29;;
42701;Laerm;28316;49.504;8.526;2023-02-23T09:36:33;41.72;40.53;42.82;;
42701;Laerm;28316;49.504;8.526;2023-02-23T09:38:59;41.82;40.33;42.93;;
42701;Laerm;28316;49.504;8.526;2023-02-23T09:50:23;42.14;40.71;43.86;;
42701;Laerm;28316;49.504;8.526;2023-02-23T09:55:55;42.17;40.89;44.27;;
42701;Laerm;28316;49.504;8.526;2023-02-23T09:58:32;42.44;40.80;49.07;;
42701;Laerm;28316;49.504;8.526;2023-02-23T10:01:35;42.11;40.80;43.14;;
42701;Laerm;28316;49.504;8.526;2023-02-23T10:12:53;42.15;40.89;43.54;;
42701;Laerm;28316;49.504;8.526;2023-02-23T10:16:00;42.17;40.80;44.51;;
42701;Laerm;28316;49.504;8.526;2023-02-23T10:18:57;42.19;40.80;44.94;;
42701;Laerm;28316;49.504;8.526;2023-02-23T10:21:35;42.23;40.71;44.83;;
42701;Laerm;28316;49.504;8.526;2023-02-23T10:24:17;42.07;40.79;43.09;;
42701;Laerm;28316;49.504;8.526;2023-02-23T10:27:04;42.06;40.71;44.11;;
42701;Laerm;28316;49.504;8.526;2023-02-23T10:29:57;42.03;40.89;43.54;;
42701;Laerm;28316;49.504;8.526;2023-02-23T10:35:18;42.10;40.71;45.45;;
42701;Laerm;28316;49.504;8.526;2023-02-23T10:37:46;42.13;40.98;43.34;;
42701;Laerm;28316;49.504;8.526;2023-02-23T10:40:16;42.13;40.80;43.24;;
42701;Laerm;28316;49.504;8.526;2023-02-23T10:42:42;42.19;41.11;43.49;;
42701;Laerm;28316;49.504;8.526;2023-02-23T10:45:21;42.26;41.14;43.46;;
42701;Laerm;28316;49.504;8.526;2023-02-23T10:48:01;42.27;40.98;43.42;;
42701;Laerm;28316;49.504;8.526;2023-02-23T10:50:30;42.30;41.14;43.44;;
42701;Laerm;28316;49.504;8.526;2023-02-23T10:53:15;42.35;40.98;43.34;;
42701;Laerm;28316;49.504;8.526;2023-02-23T10:55:43;42.37;41.14;44.35;;
42701;Laerm;28316;49.504;8.526;2023-02-23T10:58:16;42.33;41.06;43.34;;
42701;Laerm;28316;49.504;8.526;2023-02-23T11:00:59;42.29;41.06;43.34;;
42701;Laerm;28316;49.504;8.526;2023-02-23T11:06:06;42.18;40.98;43.29;;
42701;Laerm;28316;49.504;8.526;2023-02-23T11:08:51;42.19;40.62;43.34;;
42701;Laerm;28316;49.504;8.526;2023-02-23T11:11:22;42.31;40.71;43.24;;
42701;Laerm;28316;49.504;8.526;2023-02-23T11:13:50;42.61;41.06;49.12;;
42701;Laerm;28316;49.504;8.526;2023-02-23T11:16:37;42.40;40.98;43.63;;
42701;Laerm;28316;49.504;8.526;2023-02-23T11:19:05;42.40;41.06;43.63;;
42701;Laerm;28316;49.504;8.526;2023-02-23T11:21:38;42.33;40.88;44.27;;
42701;Laerm;28316;49.504;8.526;2023-02-23T11:24:27;42.13;40.43;43.34;;
42701;Laerm;28316;49.504;8.526;2023-02-23T11:27:04;42.01;40.33;45.42;;
42701;Laerm;28316;49.504;8.526;2023-02-23T11:29:41;41.93;40.23;47.18;;
42701;Laerm;28316;49.504;8.526;2023-02-23T11:32:15;41.75;39.92;42.98;;
42701;Laerm;28316;49.504;8.526;2023-02-23T11:34:42;41.65;39.70;43.04;;
42701;Laerm;28316;49.504;8.526;2023-02-23T11:37:21;41.60;39.70;43.09;;
42701;Laerm;28316;49.504;8.526;2023-02-23T11:39:56;41.56;39.70;43.04;;
42701;Laerm;28316;49.504;8.526;2023-02-23T11:42:25;41.57;39.92;43.09;;
42701;Laerm;28316;49.504;8.526;2023-02-23T11:45:15;41.52;39.81;43.04;;
42701;Laerm;28316;49.504;8.526;2023-02-23T11:47:48;41.54;39.70;42.98;;
42701;Laerm;28316;49.504;8.526;2023-02-23T11:50:33;41.58;39.92;42.93;;
42701;Laerm;28316;49.504;8.526;2023-02-23T11:56:03;41.60;39.34;42.93;;
42701;Laerm;28316;49.504;8.526;2023-02-23T11:58:46;41.52;39.81;42.93;;
42701;Laerm;28316;49.504;8.526;2023-02-23T12:01:17;41.50;39.34;42.88;;
42701;Laerm;28316;49.504;8.526;2023-02-23T12:03:56;41.44;39.58;42.88;;
42701;Laerm;28316;49.504;8.526;2023-02-23T12:06:48;41.35;39.34;42.82;;
42701;Laerm;28316;49.504;8.526;2023-02-23T12:09:22;41.28;39.08;42.76;;
42701;Laerm;28316;49.504;8.526;2023-02-23T12:12:12;41.09;38.52;42.59;;
42701;Laerm;28316;49.504;8.526;2023-02-23T12:14:52;41.16;39.08;46.89;;
42701;Laerm;28316;49.504;8.526;2023-02-23T12:17:37;41.21;39.08;42.98;;
42701;Laerm;28316;49.504;8.526;2023-02-23T12:20:23;41.30;39.58;43.39;;
42701;Laerm;28316;49.504;8.526;2023-02-23T12:23:07;41.33;39.46;42.82;;
42701;Laerm;28316;49.504;8.526;2023-02-23T12:25:56;41.41;39.46;45.72;;
42701;Laerm;28316;49.504;8.526;2023-02-23T12:28:36;41.42;39.70;43.49;;
42701;Laerm;28316;49.504;8.526;2023-02-23T12:31:46;41.63;40.03;47.88;;
42701;Laerm;28316;49.504;8.526;2023-02-23T12:34:51;41.63;39.81;45.97;;
42701;Laerm;28316;49.504;8.526;2023-02-23T12:37:38;41.67;39.81;42.98;;
42701;Laerm;28316;49.504;8.526;2023-02-23T12:40:29;41.71;39.81;45.51;;
42701;Laerm;28316;49.504;8.526;2023-02-23T12:43:16;41.73;40.03;45.63;;
42701;Laerm;28316;49.504;8.526;2023-02-23T12:51:53;41.70;40.03;45.01;;
42701;Laerm;28316;49.504;8.526;2023-02-23T12:54:21;41.67;40.03;44.19;;
42701;Laerm;28316;49.504;8.526;2023-02-23T13:02:51;41.74;40.13;43.04;;
42701;Laerm;28316;49.504;8.526;2023-02-23T13:05:31;41.77;40.23;44.69;;
42701;Laerm;28316;49.504;8.526;2023-02-23T13:08:11;41.76;40.23;48.54;;
42701;Laerm;28316;49.504;8.526;2023-02-23T13:11:45;41.67;39.58;45.23;;
42701;Laerm;28316;49.504;8.526;2023-02-23T13:17:36;41.68;39.81;44.94;;
42701;Laerm;28316;49.504;8.526;2023-02-23T13:20:29;41.66;39.70;44.58;;
42701;Laerm;28316;49.504;8.526;2023-02-23T13:23:27;41.67;39.92;45.91;;
42701;Laerm;28316;49.504;8.526;2023-02-23T13:29:05;41.73;39.70;43.14;;
42701;Laerm;28316;49.504;8.526;2023-02-23T13:31:37;41.78;40.03;44.89;;
42701;Laerm;28316;49.504;8.526;2023-02-23T13:34:09;41.79;40.03;45.11;;
42701;Laerm;28316;49.504;8.526;2023-02-23T13:36:38;41.83;40.33;43.34;;
42701;Laerm;28316;49.504;8.526;2023-02-23T13:45:30;41.87;40.33;43.24;;
42701;Laerm;28316;49.504;8.526;2023-02-23T13:53:43;41.90;40.43;43.09;;
42701;Laerm;28316;49.504;8.526;2023-02-23T13:56:22;41.94;40.23;43.14;;
42701;Laerm;28316;49.504;8.526;2023-02-23T13:59:02;41.92;40.13;43.24;;
42701;Laerm;28316;49.504;8.526;2023-02-23T14:01:34;41.88;40.13;43.09;;
42701;Laerm;28316;49.504;8.526;2023-02-23T14:04:06;41.88;40.33;43.34;;
42701;Laerm;28316;49.504;8.526;2023-02-23T14:06:38;41.89;40.13;43.24;;
42701;Laerm;28316;49.504;8.526;2023-02-23T14:09:19;41.89;40.23;43.63;;
42701;Laerm;28316;49.504;8.526;2023-02-23T14:12:12;42.01;40.13;46.76;;
42701;Laerm;28316;49.504;8.526;2023-02-23T14:14:44;41.89;40.23;43.09;;
42701;Laerm;28316;49.504;8.526;2023-02-23T14:20:13;41.89;39.92;43.14;;
42701;Laerm;28316;49.504;8.526;2023-02-23T14:26:11;41.90;40.33;43.14;;
42701;Laerm;28316;49.504;8.526;2023-02-23T14:28:39;41.84;40.23;43.14;;
42701;Laerm;28316;49.504;8.526;2023-02-23T14:44:36;41.87;40.33;43.24;;
42701;Laerm;28316;49.504;8.526;2023-02-23T14:47:11;41.86;40.23;43.09;;
42701;Laerm;28316;49.504;8.526;2023-02-23T14:49:55;41.81;40.23;43.19;;
42701;Laerm;28316;49.504;8.526;2023-02-23T14:52:29;41.84;40.13;43.04;;
42701;Laerm;28316;49.504;8.526;2023-02-23T14:57:41;41.86;40.13;43.14;;
42701;Laerm;28316;49.504;8.526;2023-02-23T15:00:40;41.88;40.23;43.14;;
42701;Laerm;28316;49.504;8.526;2023-02-23T15:03:10;41.90;40.33;43.19;;
42701;Laerm;28316;49.504;8.526;2023-02-23T15:06:14;41.88;40.33;43.19;;
42701;Laerm;28316;49.504;8.526;2023-02-23T15:08:43;41.86;40.03;43.09;;
42701;Laerm;28316;49.504;8.526;2023-02-23T15:11:12;41.87;40.33;43.19;;
42701;Laerm;28316;49.504;8.526;2023-02-23T15:13:47;41.90;40.43;42.98;;
42701;Laerm;28316;49.504;8.526;2023-02-23T15:16:27;41.90;40.33;43.24;;
42701;Laerm;28316;49.504;8.526;2023-02-23T15:18:53;41.90;40.33;43.29;;
42701;Laerm;28316;49.504;8.526;2023-02-23T15:21:22;41.91;40.43;43.29;;
42701;Laerm;28316;49.504;8.526;2023-02-23T15:24:12;41.88;40.03;43.09;;
42701;Laerm;28316;49.504;8.526;2023-02-23T15:26:41;41.90;40.33;43.19;;
42701;Laerm;28316;49.504;8.526;2023-02-23T15:31:42;41.91;40.53;43.14;;
42701;Laerm;28316;49.504;8.526;2023-02-23T15:34:25;41.91;40.13;43.04;;
42701;Laerm;28316;49.504;8.526;2023-02-23T15:37:01;41.91;40.13;43.14;;
42701;Laerm;28316;49.504;8.526;2023-02-23T15:39:48;41.92;40.33;43.19;;
42701;Laerm;28316;49.504;8.526;2023-02-23T15:42:34;41.96;40.53;43.14;;
42701;Laerm;28316;49.504;8.526;2023-02-23T15:45:17;41.97;40.71;43.19;;
42701;Laerm;28316;49.504;8.526;2023-02-23T15:47:44;42.00;40.53;43.28;;
42701;Laerm;28316;49.504;8.526;2023-02-23T15:50:18;42.01;40.13;43.19;;
42701;Laerm;28316;49.504;8.526;2023-02-23T15:52:51;42.01;40.43;43.29;;
42701;Laerm;28316;49.504;8.526;2023-02-23T15:55:40;42.03;40.62;43.19;;
42701;Laerm;28316;49.504;8.526;2023-02-23T15:58:29;42.04;40.53;43.14;;
42701;Laerm;28316;49.504;8.526;2023-02-23T16:01:07;42.04;40.53;43.19;;
42701;Laerm;28316;49.504;8.526;2023-02-23T16:03:53;42.07;40.62;43.29;;
42701;Laerm;28316;49.504;8.526;2023-02-23T16:06:24;42.06;40.62;43.39;;
42701;Laerm;28316;49.504;8.526;2023-02-23T16:12:18;42.06;40.71;43.29;;
42701;Laerm;28316;49.504;8.526;2023-02-23T16:15:02;42.06;40.43;43.39;;
42701;Laerm;28316;49.504;8.526;2023-02-23T16:17:42;42.05;40.71;43.19;;
42701;Laerm;28316;49.504;8.526;2023-02-23T16:20:32;42.06;40.62;43.24;;
42701;Laerm;28316;49.504;8.526;2023-02-23T16:23:15;42.06;40.53;43.19;;
42701;Laerm;28316;49.504;8.526;2023-02-23T16:25:58;42.06;40.33;43.14;;